Americus, Kansas
Current Conditions -  °F | °C
As of 2:53 AM on Monday 24 Nov 2014 (Local Time) from KEMP Reporting Station
Clear Clear  
Wind Chill: 27°   Ceiling: Unl
Heat Index: 35°   Visibility: 10mi
Dew Point: 27°   Wind: 10mph
Humidity: 72%   Direction: 290°WNW
Pressure: 29.67"   Gusts: NA
Location:  38.51°N, 96.26°W
Report Text: KEMP 240853Z AUTO 29009KT 10SM CLR 02/M03 A2967 RMK AO2 SLP053 T00171028 53020
Loading
Personal Weather Stations






























Interactive Weather Map New forecast layout! Learn more

10-Day Weather Forecast

Advertisements
Track Severe Weather on mobile